sensor_id;sensor_type;location;lat;lon;timestamp;P1;durP1;ratioP1;P2;durP2;ratioP2
66886;SDS011;67239;51.680;5.976;2023-02-22T00:02:01;40.28;;;20.73;;
66886;SDS011;67239;51.680;5.976;2023-02-22T00:04:37;40.35;;;19.35;;
66886;SDS011;67239;51.680;5.976;2023-02-22T00:07:05;42.55;;;20.80;;
66886;SDS011;67239;51.680;5.976;2023-02-22T00:09:33;40.33;;;20.17;;
66886;SDS011;67239;51.680;5.976;2023-02-22T00:12:00;44.00;;;21.85;;
66886;SDS011;67239;51.680;5.976;2023-02-22T00:14:27;44.42;;;22.08;;
66886;SDS011;67239;51.680;5.976;2023-02-22T00:16:54;46.47;;;21.23;;
66886;SDS011;67239;51.680;5.976;2023-02-22T00:19:24;46.47;;;21.95;;
66886;SDS011;67239;51.680;5.976;2023-02-22T00:21:53;42.88;;;20.75;;
66886;SDS011;67239;51.680;5.976;2023-02-22T00:24:23;44.58;;;21.17;;
66886;SDS011;67239;51.680;5.976;2023-02-22T00:26:51;44.85;;;22.20;;
66886;SDS011;67239;51.680;5.976;2023-02-22T00:29:24;47.70;;;22.75;;
66886;SDS011;67239;51.680;5.976;2023-02-22T00:31:52;45.28;;;21.85;;
66886;SDS011;67239;51.680;5.976;2023-02-22T00:34:19;45.13;;;21.40;;
66886;SDS011;67239;51.680;5.976;2023-02-22T00:36:48;48.28;;;22.35;;
66886;SDS011;67239;51.680;5.976;2023-02-22T00:39:16;45.03;;;23.00;;
66886;SDS011;67239;51.680;5.976;2023-02-22T00:41:43;45.40;;;22.38;;
66886;SDS011;67239;51.680;5.976;2023-02-22T00:44:11;45.72;;;22.88;;
66886;SDS011;67239;51.680;5.976;2023-02-22T00:46:38;51.15;;;24.10;;
66886;SDS011;67239;51.680;5.976;2023-02-22T00:49:05;51.80;;;23.90;;
66886;SDS011;67239;51.680;5.976;2023-02-22T00:51:32;49.38;;;22.50;;
66886;SDS011;67239;51.680;5.976;2023-02-22T00:53:59;48.50;;;23.60;;
66886;SDS011;67239;51.680;5.976;2023-02-22T00:56:27;47.97;;;23.40;;
66886;SDS011;67239;51.680;5.976;2023-02-22T00:58:54;48.50;;;23.67;;
66886;SDS011;67239;51.680;5.976;2023-02-22T01:01:21;47.53;;;23.23;;
66886;SDS011;67239;51.680;5.976;2023-02-22T01:03:50;44.17;;;22.15;;
66886;SDS011;67239;51.680;5.976;2023-02-22T01:06:17;45.35;;;22.15;;
66886;SDS011;67239;51.680;5.976;2023-02-22T01:08:46;44.17;;;22.17;;
66886;SDS011;67239;51.680;5.976;2023-02-22T01:11:14;43.88;;;20.95;;
66886;SDS011;67239;51.680;5.976;2023-02-22T01:13:43;43.85;;;21.85;;
66886;SDS011;67239;51.680;5.976;2023-02-22T01:16:13;50.47;;;23.98;;
66886;SDS011;67239;51.680;5.976;2023-02-22T01:18:40;49.25;;;24.13;;
66886;SDS011;67239;51.680;5.976;2023-02-22T01:21:07;49.13;;;23.42;;
66886;SDS011;67239;51.680;5.976;2023-02-22T01:23:34;46.15;;;23.17;;
66886;SDS011;67239;51.680;5.976;2023-02-22T01:26:03;46.67;;;23.27;;
66886;SDS011;67239;51.680;5.976;2023-02-22T01:28:32;48.90;;;23.55;;
66886;SDS011;67239;51.680;5.976;2023-02-22T01:31:01;48.60;;;24.00;;
66886;SDS011;67239;51.680;5.976;2023-02-22T01:33:28;58.83;;;25.75;;
66886;SDS011;67239;51.680;5.976;2023-02-22T01:35:56;51.45;;;24.60;;
66886;SDS011;67239;51.680;5.976;2023-02-22T01:38:26;53.70;;;24.08;;
66886;SDS011;67239;51.680;5.976;2023-02-22T01:40:53;56.00;;;25.80;;
66886;SDS011;67239;51.680;5.976;2023-02-22T01:43:22;53.47;;;24.30;;
66886;SDS011;67239;51.680;5.976;2023-02-22T01:45:57;53.85;;;24.40;;
66886;SDS011;67239;51.680;5.976;2023-02-22T01:48:45;54.95;;;25.60;;
66886;SDS011;67239;51.680;5.976;2023-02-22T01:51:33;51.05;;;24.63;;
66886;SDS011;67239;51.680;5.976;2023-02-22T01:54:08;50.30;;;24.55;;
66886;SDS011;67239;51.680;5.976;2023-02-22T01:56:52;51.40;;;23.80;;
66886;SDS011;67239;51.680;5.976;2023-02-22T01:59:36;49.75;;;24.08;;
66886;SDS011;67239;51.680;5.976;2023-02-22T02:02:11;51.53;;;25.15;;
66886;SDS011;67239;51.680;5.976;2023-02-22T02:04:40;45.95;;;23.60;;
66886;SDS011;67239;51.680;5.976;2023-02-22T02:07:09;52.97;;;24.85;;
66886;SDS011;67239;51.680;5.976;2023-02-22T02:09:47;54.35;;;25.35;;
66886;SDS011;67239;51.680;5.976;2023-02-22T02:12:24;47.22;;;23.63;;
66886;SDS011;67239;51.680;5.976;2023-02-22T02:17:58;54.30;;;25.63;;
66886;SDS011;67239;51.680;5.976;2023-02-22T02:20:37;54.67;;;25.52;;
66886;SDS011;67239;51.680;5.976;2023-02-22T02:23:29;56.75;;;26.70;;
66886;SDS011;67239;51.680;5.976;2023-02-22T02:29:46;57.83;;;26.48;;
66886;SDS011;67239;51.680;5.976;2023-02-22T02:35:54;59.58;;;27.25;;
66886;SDS011;67239;51.680;5.976;2023-02-22T02:38:59;59.70;;;27.38;;
66886;SDS011;67239;51.680;5.976;2023-02-22T02:41:48;59.58;;;27.65;;
66886;SDS011;67239;51.680;5.976;2023-02-22T02:47:14;62.17;;;28.23;;
66886;SDS011;67239;51.680;5.976;2023-02-22T02:49:53;65.65;;;29.83;;
66886;SDS011;67239;51.680;5.976;2023-02-22T02:52:35;65.05;;;28.60;;
66886;SDS011;67239;51.680;5.976;2023-02-22T02:55:06;64.30;;;29.45;;
66886;SDS011;67239;51.680;5.976;2023-02-22T02:57:40;63.88;;;29.25;;
66886;SDS011;67239;51.680;5.976;2023-02-22T03:00:07;70.75;;;30.85;;
66886;SDS011;67239;51.680;5.976;2023-02-22T03:15:35;73.00;;;31.30;;
66886;SDS011;67239;51.680;5.976;2023-02-22T03:18:38;78.32;;;33.00;;
66886;SDS011;67239;51.680;5.976;2023-02-22T03:27:05;81.32;;;31.98;;
66886;SDS011;67239;51.680;5.976;2023-02-22T03:29:45;84.20;;;33.00;;
66886;SDS011;67239;51.680;5.976;2023-02-22T03:32:19;77.57;;;31.23;;
66886;SDS011;67239;51.680;5.976;2023-02-22T03:34:55;72.43;;;31.45;;
66886;SDS011;67239;51.680;5.976;2023-02-22T03:37:36;77.60;;;31.92;;
66886;SDS011;67239;51.680;5.976;2023-02-22T03:40:14;78.75;;;31.67;;
66886;SDS011;67239;51.680;5.976;2023-02-22T03:43:05;89.93;;;33.30;;
66886;SDS011;67239;51.680;5.976;2023-02-22T03:45:43;86.15;;;34.03;;
66886;SDS011;67239;51.680;5.976;2023-02-22T03:48:31;82.03;;;33.10;;
66886;SDS011;67239;51.680;5.976;2023-02-22T03:51:05;128.20;;;36.28;;
66886;SDS011;67239;51.680;5.976;2023-02-22T03:53:32;99.93;;;34.00;;
66886;SDS011;67239;51.680;5.976;2023-02-22T03:56:04;104.15;;;36.03;;
66886;SDS011;67239;51.680;5.976;2023-02-22T03:58:38;104.10;;;35.55;;
66886;SDS011;67239;51.680;5.976;2023-02-22T04:01:13;152.25;;;35.33;;
66886;SDS011;67239;51.680;5.976;2023-02-22T04:03:41;123.35;;;35.13;;
66886;SDS011;67239;51.680;5.976;2023-02-22T04:06:11;133.25;;;35.95;;
66886;SDS011;67239;51.680;5.976;2023-02-22T04:08:38;124.00;;;34.42;;
66886;SDS011;67239;51.680;5.976;2023-02-22T04:11:06;300.65;;;38.63;;
66886;SDS011;67239;51.680;5.976;2023-02-22T04:13:33;106.70;;;33.38;;
66886;SDS011;67239;51.680;5.976;2023-02-22T04:16:01;173.23;;;36.58;;
66886;SDS011;67239;51.680;5.976;2023-02-22T04:18:29;219.15;;;37.10;;
66886;SDS011;67239;51.680;5.976;2023-02-22T04:20:56;143.23;;;34.92;;
66886;SDS011;67239;51.680;5.976;2023-02-22T04:23:37;306.10;;;34.38;;
66886;SDS011;67239;51.680;5.976;2023-02-22T04:26:04;381.02;;;39.58;;
66886;SDS011;67239;51.680;5.976;2023-02-22T04:28:31;313.17;;;38.67;;
66886;SDS011;67239;51.680;5.976;2023-02-22T04:33:44;203.77;;;32.72;;
66886;SDS011;67239;51.680;5.976;2023-02-22T04:36:14;378.25;;;37.63;;
66886;SDS011;67239;51.680;5.976;2023-02-22T04:38:43;382.77;;;39.92;;
66886;SDS011;67239;51.680;5.976;2023-02-22T04:41:11;581.45;;;53.78;;
66886;SDS011;67239;51.680;5.976;2023-02-22T04:43:38;183.18;;;31.73;;
66886;SDS011;67239;51.680;5.976;2023-02-22T04:46:20;411.08;;;41.72;;
66886;SDS011;67239;51.680;5.976;2023-02-22T04:48:47;234.05;;;37.10;;
66886;SDS011;67239;51.680;5.976;2023-02-22T04:51:19;516.28;;;46.40;;
66886;SDS011;67239;51.680;5.976;2023-02-22T04:54:01;423.90;;;45.22;;
66886;SDS011;67239;51.680;5.976;2023-02-22T04:56:31;302.52;;;43.55;;
66886;SDS011;67239;51.680;5.976;2023-02-22T04:58:58;227.75;;;37.65;;
66886;SDS011;67239;51.680;5.976;2023-02-22T05:01:29;417.98;;;45.63;;
66886;SDS011;67239;51.680;5.976;2023-02-22T05:04:03;466.10;;;45.30;;
66886;SDS011;67239;51.680;5.976;2023-02-22T05:06:32;205.23;;;35.47;;
66886;SDS011;67239;51.680;5.976;2023-02-22T05:08:59;279.63;;;34.95;;
66886;SDS011;67239;51.680;5.976;2023-02-22T05:11:26;237.45;;;33.08;;
66886;SDS011;67239;51.680;5.976;2023-02-22T05:13:54;234.68;;;34.17;;
66886;SDS011;67239;51.680;5.976;2023-02-22T05:16:21;200.68;;;31.80;;
66886;SDS011;67239;51.680;5.976;2023-02-22T05:18:49;138.77;;;28.67;;
66886;SDS011;67239;51.680;5.976;2023-02-22T05:21:16;192.02;;;30.77;;
66886;SDS011;67239;51.680;5.976;2023-02-22T05:23:43;155.63;;;29.25;;
66886;SDS011;67239;51.680;5.976;2023-02-22T05:26:10;279.73;;;33.92;;
66886;SDS011;67239;51.680;5.976;2023-02-22T05:28:37;114.50;;;27.92;;
66886;SDS011;67239;51.680;5.976;2023-02-22T05:31:05;146.32;;;29.20;;
66886;SDS011;67239;51.680;5.976;2023-02-22T05:33:35;125.65;;;26.65;;
66886;SDS011;67239;51.680;5.976;2023-02-22T05:36:02;107.55;;;27.83;;
66886;SDS011;67239;51.680;5.976;2023-02-22T05:38:30;128.68;;;27.42;;
66886;SDS011;67239;51.680;5.976;2023-02-22T05:40:57;154.02;;;28.08;;
66886;SDS011;67239;51.680;5.976;2023-02-22T05:43:24;174.82;;;29.83;;
66886;SDS011;67239;51.680;5.976;2023-02-22T05:45:51;124.38;;;27.80;;
66886;SDS011;67239;51.680;5.976;2023-02-22T05:48:18;115.90;;;29.15;;
66886;SDS011;67239;51.680;5.976;2023-02-22T05:50:48;121.78;;;29.00;;
66886;SDS011;67239;51.680;5.976;2023-02-22T05:53:15;173.07;;;32.42;;
66886;SDS011;67239;51.680;5.976;2023-02-22T05:55:42;172.27;;;32.92;;
66886;SDS011;67239;51.680;5.976;2023-02-22T05:58:12;156.57;;;32.70;;
66886;SDS011;67239;51.680;5.976;2023-02-22T06:00:39;147.43;;;30.83;;
66886;SDS011;67239;51.680;5.976;2023-02-22T06:03:07;154.82;;;30.00;;
66886;SDS011;67239;51.680;5.976;2023-02-22T06:05:38;135.68;;;30.60;;
66886;SDS011;67239;51.680;5.976;2023-02-22T06:08:06;94.65;;;28.73;;
66886;SDS011;67239;51.680;5.976;2023-02-22T06:10:33;185.85;;;31.05;;
66886;SDS011;67239;51.680;5.976;2023-02-22T06:13:01;108.82;;;28.90;;
66886;SDS011;67239;51.680;5.976;2023-02-22T06:15:31;196.40;;;32.38;;
66886;SDS011;67239;51.680;5.976;2023-02-22T06:17:58;151.40;;;30.15;;
66886;SDS011;67239;51.680;5.976;2023-02-22T06:20:29;103.93;;;29.98;;
66886;SDS011;67239;51.680;5.976;2023-02-22T06:22:56;147.02;;;32.47;;
66886;SDS011;67239;51.680;5.976;2023-02-22T06:25:28;142.30;;;32.08;;
66886;SDS011;67239;51.680;5.976;2023-02-22T06:27:57;146.50;;;31.08;;
66886;SDS011;67239;51.680;5.976;2023-02-22T06:30:26;153.50;;;32.67;;
66886;SDS011;67239;51.680;5.976;2023-02-22T06:32:54;135.23;;;31.27;;
66886;SDS011;67239;51.680;5.976;2023-02-22T06:35:21;116.88;;;30.13;;
66886;SDS011;67239;51.680;5.976;2023-02-22T06:37:49;117.32;;;30.70;;
66886;SDS011;67239;51.680;5.976;2023-02-22T06:40:16;130.88;;;31.55;;
66886;SDS011;67239;51.680;5.976;2023-02-22T06:42:43;107.68;;;29.85;;
66886;SDS011;67239;51.680;5.976;2023-02-22T06:45:15;113.63;;;30.20;;
66886;SDS011;67239;51.680;5.976;2023-02-22T06:47:43;106.13;;;27.30;;
66886;SDS011;67239;51.680;5.976;2023-02-22T06:50:22;108.25;;;28.08;;
66886;SDS011;67239;51.680;5.976;2023-02-22T06:52:51;120.22;;;28.98;;
66886;SDS011;67239;51.680;5.976;2023-02-22T06:55:23;111.55;;;29.35;;
66886;SDS011;67239;51.680;5.976;2023-02-22T06:57:53;116.65;;;30.00;;
66886;SDS011;67239;51.680;5.976;2023-02-22T07:00:22;107.30;;;28.15;;
66886;SDS011;67239;51.680;5.976;2023-02-22T07:02:51;116.43;;;29.10;;
66886;SDS011;67239;51.680;5.976;2023-02-22T07:05:20;101.05;;;27.95;;
66886;SDS011;67239;51.680;5.976;2023-02-22T07:07:50;108.18;;;28.27;;
66886;SDS011;67239;51.680;5.976;2023-02-22T07:10:29;100.07;;;27.08;;
66886;SDS011;67239;51.680;5.976;2023-02-22T07:12:59;100.93;;;27.95;;
66886;SDS011;67239;51.680;5.976;2023-02-22T07:15:28;93.00;;;26.95;;
66886;SDS011;67239;51.680;5.976;2023-02-22T07:17:58;97.55;;;27.75;;
66886;SDS011;67239;51.680;5.976;2023-02-22T07:20:27;101.95;;;27.90;;
66886;SDS011;67239;51.680;5.976;2023-02-22T07:22:56;102.45;;;27.52;;
66886;SDS011;67239;51.680;5.976;2023-02-22T07:25:23;98.53;;;28.23;;
66886;SDS011;67239;51.680;5.976;2023-02-22T07:27:53;90.85;;;27.40;;
66886;SDS011;67239;51.680;5.976;2023-02-22T07:30:22;78.13;;;25.38;;
66886;SDS011;67239;51.680;5.976;2023-02-22T07:32:57;79.60;;;24.98;;
66886;SDS011;67239;51.680;5.976;2023-02-22T07:37:57;78.25;;;24.98;;
66886;SDS011;67239;51.680;5.976;2023-02-22T07:40:25;75.07;;;25.45;;
66886;SDS011;67239;51.680;5.976;2023-02-22T07:43:00;73.80;;;25.25;;
66886;SDS011;67239;51.680;5.976;2023-02-22T07:45:35;65.97;;;23.25;;
66886;SDS011;67239;51.680;5.976;2023-02-22T07:48:03;64.18;;;24.27;;
66886;SDS011;67239;51.680;5.976;2023-02-22T07:50:32;81.70;;;26.58;;
66886;SDS011;67239;51.680;5.976;2023-02-22T07:53:01;57.03;;;22.90;;
66886;SDS011;67239;51.680;5.976;2023-02-22T07:55:32;70.30;;;26.10;;
66886;SDS011;67239;51.680;5.976;2023-02-22T07:58:02;72.00;;;24.73;;
66886;SDS011;67239;51.680;5.976;2023-02-22T08:00:33;65.03;;;24.73;;
66886;SDS011;67239;51.680;5.976;2023-02-22T08:03:10;65.85;;;26.20;;
66886;SDS011;67239;51.680;5.976;2023-02-22T08:05:40;67.90;;;24.25;;
66886;SDS011;67239;51.680;5.976;2023-02-22T08:08:12;65.18;;;24.02;;
66886;SDS011;67239;51.680;5.976;2023-02-22T08:10:45;55.67;;;22.55;;
66886;SDS011;67239;51.680;5.976;2023-02-22T08:13:13;51.90;;;21.63;;
66886;SDS011;67239;51.680;5.976;2023-02-22T08:15:41;51.88;;;22.27;;
66886;SDS011;67239;51.680;5.976;2023-02-22T08:18:10;50.35;;;22.33;;
66886;SDS011;67239;51.680;5.976;2023-02-22T08:20:41;47.22;;;21.35;;
66886;SDS011;67239;51.680;5.976;2023-02-22T08:23:11;44.97;;;21.83;;
66886;SDS011;67239;51.680;5.976;2023-02-22T08:25:40;51.08;;;21.60;;
66886;SDS011;67239;51.680;5.976;2023-02-22T08:28:11;50.13;;;22.35;;
66886;SDS011;67239;51.680;5.976;2023-02-22T08:30:42;53.75;;;23.02;;
66886;SDS011;67239;51.680;5.976;2023-02-22T08:33:10;53.97;;;22.38;;
66886;SDS011;67239;51.680;5.976;2023-02-22T08:35:41;51.65;;;22.13;;
66886;SDS011;67239;51.680;5.976;2023-02-22T08:38:16;55.00;;;23.45;;
66886;SDS011;67239;51.680;5.976;2023-02-22T08:40:47;50.05;;;21.48;;
66886;SDS011;67239;51.680;5.976;2023-02-22T08:43:16;49.95;;;22.60;;
66886;SDS011;67239;51.680;5.976;2023-02-22T08:45:45;51.10;;;21.75;;
66886;SDS011;67239;51.680;5.976;2023-02-22T08:48:14;50.53;;;22.88;;
66886;SDS011;67239;51.680;5.976;2023-02-22T08:50:42;53.50;;;22.25;;
66886;SDS011;67239;51.680;5.976;2023-02-22T08:53:10;52.00;;;22.23;;
66886;SDS011;67239;51.680;5.976;2023-02-22T08:55:39;57.03;;;23.85;;
66886;SDS011;67239;51.680;5.976;2023-02-22T08:58:07;50.47;;;21.92;;
66886;SDS011;67239;51.680;5.976;2023-02-22T09:00:38;48.92;;;22.25;;
66886;SDS011;67239;51.680;5.976;2023-02-22T09:03:08;54.63;;;23.00;;
66886;SDS011;67239;51.680;5.976;2023-02-22T09:05:42;54.53;;;22.70;;
66886;SDS011;67239;51.680;5.976;2023-02-22T09:08:09;53.53;;;23.40;;
66886;SDS011;67239;51.680;5.976;2023-02-22T09:10:37;52.92;;;21.63;;
66886;SDS011;67239;51.680;5.976;2023-02-22T09:13:04;49.67;;;22.83;;
66886;SDS011;67239;51.680;5.976;2023-02-22T09:15:33;43.22;;;20.05;;
66886;SDS011;67239;51.680;5.976;2023-02-22T09:18:06;44.00;;;21.35;;
66886;SDS011;67239;51.680;5.976;2023-02-22T09:20:38;46.90;;;21.23;;
66886;SDS011;67239;51.680;5.976;2023-02-22T09:23:08;48.38;;;21.75;;
66886;SDS011;67239;51.680;5.976;2023-02-22T09:25:35;42.45;;;21.73;;
66886;SDS011;67239;51.680;5.976;2023-02-22T09:28:07;48.90;;;21.40;;
66886;SDS011;67239;51.680;5.976;2023-02-22T09:30:37;43.33;;;20.65;;
66886;SDS011;67239;51.680;5.976;2023-02-22T09:33:14;42.95;;;20.83;;
66886;SDS011;67239;51.680;5.976;2023-02-22T09:35:44;43.08;;;20.40;;
66886;SDS011;67239;51.680;5.976;2023-02-22T09:38:17;46.70;;;21.02;;
66886;SDS011;67239;51.680;5.976;2023-02-22T09:40:49;44.38;;;20.90;;
66886;SDS011;67239;51.680;5.976;2023-02-22T09:46:12;43.15;;;20.10;;
66886;SDS011;67239;51.680;5.976;2023-02-22T09:48:59;40.58;;;20.80;;
66886;SDS011;67239;51.680;5.976;2023-02-22T09:51:36;36.92;;;19.92;;
66886;SDS011;67239;51.680;5.976;2023-02-22T09:57:08;38.30;;;18.15;;
66886;SDS011;67239;51.680;5.976;2023-02-22T09:59:47;33.72;;;18.63;;
66886;SDS011;67239;51.680;5.976;2023-02-22T10:02:37;34.90;;;19.05;;
66886;SDS011;67239;51.680;5.976;2023-02-22T10:05:38;35.15;;;18.42;;
66886;SDS011;67239;51.680;5.976;2023-02-22T10:08:13;36.70;;;19.13;;
66886;SDS011;67239;51.680;5.976;2023-02-22T10:10:45;31.92;;;18.52;;
66886;SDS011;67239;51.680;5.976;2023-02-22T10:22:41;33.92;;;18.08;;
66886;SDS011;67239;51.680;5.976;2023-02-22T10:25:26;33.92;;;18.35;;
66886;SDS011;67239;51.680;5.976;2023-02-22T10:28:02;29.15;;;16.88;;
66886;SDS011;67239;51.680;5.976;2023-02-22T10:31:11;33.80;;;18.23;;
66886;SDS011;67239;51.680;5.976;2023-02-22T10:33:55;32.17;;;17.52;;
66886;SDS011;67239;51.680;5.976;2023-02-22T10:36:29;28.98;;;16.88;;
66886;SDS011;67239;51.680;5.976;2023-02-22T10:38:59;29.60;;;17.67;;
66886;SDS011;67239;51.680;5.976;2023-02-22T10:41:54;34.20;;;17.38;;
66886;SDS011;67239;51.680;5.976;2023-02-22T10:44:32;39.50;;;17.77;;
66886;SDS011;67239;51.680;5.976;2023-02-22T10:47:00;30.67;;;17.35;;
66886;SDS011;67239;51.680;5.976;2023-02-22T10:49:34;38.55;;;20.58;;
66886;SDS011;67239;51.680;5.976;2023-02-22T10:52:16;30.65;;;17.75;;
66886;SDS011;67239;51.680;5.976;2023-02-22T10:54:57;37.67;;;17.17;;
66886;SDS011;67239;51.680;5.976;2023-02-22T10:57:43;37.00;;;18.58;;
66886;SDS011;67239;51.680;5.976;2023-02-22T11:00:34;33.50;;;18.50;;
66886;SDS011;67239;51.680;5.976;2023-02-22T11:03:14;35.95;;;16.88;;
66886;SDS011;67239;51.680;5.976;2023-02-22T11:05:48;34.22;;;17.10;;
66886;SDS011;67239;51.680;5.976;2023-02-22T11:10:47;34.00;;;17.35;;
66886;SDS011;67239;51.680;5.976;2023-02-22T11:16:20;34.03;;;16.00;;
66886;SDS011;67239;51.680;5.976;2023-02-22T11:21:58;33.45;;;16.38;;
66886;SDS011;67239;51.680;5.976;2023-02-22T11:24:51;25.20;;;14.32;;
66886;SDS011;67239;51.680;5.976;2023-02-22T11:30:26;25.20;;;14.50;;
66886;SDS011;67239;51.680;5.976;2023-02-22T11:33:18;25.63;;;15.40;;
66886;SDS011;67239;51.680;5.976;2023-02-22T11:43:49;39.08;;;15.55;;
66886;SDS011;67239;51.680;5.976;2023-02-22T11:46:21;24.77;;;14.68;;
66886;SDS011;67239;51.680;5.976;2023-02-22T11:49:00;24.70;;;15.20;;
66886;SDS011;67239;51.680;5.976;2023-02-22T11:51:48;27.27;;;15.05;;
66886;SDS011;67239;51.680;5.976;2023-02-22T12:00:27;28.65;;;15.23;;
66886;SDS011;67239;51.680;5.976;2023-02-22T12:04:01;38.20;;;15.88;;
66886;SDS011;67239;51.680;5.976;2023-02-22T12:06:13;27.42;;;15.73;;
66886;SDS011;67239;51.680;5.976;2023-02-22T12:08:59;27.20;;;14.88;;
66886;SDS011;67239;51.680;5.976;2023-02-22T12:11:48;26.40;;;14.55;;
66886;SDS011;67239;51.680;5.976;2023-02-22T12:14:53;28.08;;;14.60;;
66886;SDS011;67239;51.680;5.976;2023-02-22T12:23:21;16.60;;;10.38;;
66886;SDS011;67239;51.680;5.976;2023-02-22T12:26:10;19.98;;;9.95;;
66886;SDS011;67239;51.680;5.976;2023-02-22T12:28:54;22.60;;;10.18;;
66886;SDS011;67239;51.680;5.976;2023-02-22T12:40:10;26.35;;;9.65;;
66886;SDS011;67239;51.680;5.976;2023-02-22T12:42:55;14.18;;;9.27;;
66886;SDS011;67239;51.680;5.976;2023-02-22T12:45:47;14.05;;;8.95;;
66886;SDS011;67239;51.680;5.976;2023-02-22T12:54:21;19.63;;;9.85;;
66886;SDS011;67239;51.680;5.976;2023-02-22T12:57:01;40.63;;;11.13;;
66886;SDS011;67239;51.680;5.976;2023-02-22T13:05:04;17.00;;;9.55;;
66886;SDS011;67239;51.680;5.976;2023-02-22T13:07:40;14.82;;;9.32;;
66886;SDS011;67239;51.680;5.976;2023-02-22T13:25:27;14.55;;;9.18;;
66886;SDS011;67239;51.680;5.976;2023-02-22T13:31:25;15.52;;;9.45;;
66886;SDS011;67239;51.680;5.976;2023-02-22T13:37:03;14.45;;;9.13;;
66886;SDS011;67239;51.680;5.976;2023-02-22T13:42:56;12.70;;;8.77;;
66886;SDS011;67239;51.680;5.976;2023-02-22T13:46:23;15.45;;;9.05;;
66886;SDS011;67239;51.680;5.976;2023-02-22T13:52:46;16.42;;;9.65;;
66886;SDS011;67239;51.680;5.976;2023-02-22T13:55:21;14.07;;;9.85;;
66886;SDS011;67239;51.680;5.976;2023-02-22T13:58:08;16.90;;;9.93;;
66886;SDS011;67239;51.680;5.976;2023-02-22T14:00:40;14.95;;;10.20;;
66886;SDS011;67239;51.680;5.976;2023-02-22T14:03:38;15.40;;;9.80;;
66886;SDS011;67239;51.680;5.976;2023-02-22T14:06:07;21.60;;;11.40;;
66886;SDS011;67239;51.680;5.976;2023-02-22T14:08:56;21.73;;;10.32;;
66886;SDS011;67239;51.680;5.976;2023-02-22T14:14:09;14.85;;;10.88;;
66886;SDS011;67239;51.680;5.976;2023-02-22T14:16:40;21.15;;;12.00;;
66886;SDS011;67239;51.680;5.976;2023-02-22T14:19:19;20.25;;;11.05;;
66886;SDS011;67239;51.680;5.976;2023-02-22T14:21:59;21.02;;;11.32;;
66886;SDS011;67239;51.680;5.976;2023-02-22T14:24:43;25.63;;;11.93;;
66886;SDS011;67239;51.680;5.976;2023-02-22T14:27:13;24.73;;;11.70;;
66886;SDS011;67239;51.680;5.976;2023-02-22T14:29:50;18.42;;;11.07;;
66886;SDS011;67239;51.680;5.976;2023-02-22T14:32:32;19.05;;;12.25;;
66886;SDS011;67239;51.680;5.976;2023-02-22T14:35:05;18.60;;;11.45;;
66886;SDS011;67239;51.680;5.976;2023-02-22T14:37:55;22.00;;;12.27;;
66886;SDS011;67239;51.680;5.976;2023-02-22T14:40:29;19.80;;;11.50;;
66886;SDS011;67239;51.680;5.976;2023-02-22T14:43:05;28.50;;;12.20;;
66886;SDS011;67239;51.680;5.976;2023-02-22T14:45:51;20.70;;;11.88;;
66886;SDS011;67239;51.680;5.976;2023-02-22T14:51:14;22.13;;;12.30;;
66886;SDS011;67239;51.680;5.976;2023-02-22T14:53:53;24.98;;;12.25;;
66886;SDS011;67239;51.680;5.976;2023-02-22T14:56:32;19.10;;;11.82;;
66886;SDS011;67239;51.680;5.976;2023-02-22T14:59:20;23.58;;;10.90;;
66886;SDS011;67239;51.680;5.976;2023-02-22T15:02:10;16.50;;;10.45;;
66886;SDS011;67239;51.680;5.976;2023-02-22T15:04:39;20.80;;;10.65;;
66886;SDS011;67239;51.680;5.976;2023-02-22T15:07:20;16.67;;;11.05;;
66886;SDS011;67239;51.680;5.976;2023-02-22T15:12:55;17.20;;;10.50;;
66886;SDS011;67239;51.680;5.976;2023-02-22T15:15:46;15.38;;;10.75;;
66886;SDS011;67239;51.680;5.976;2023-02-22T15:18:25;21.00;;;10.88;;
66886;SDS011;67239;51.680;5.976;2023-02-22T15:20:54;18.00;;;11.40;;
66886;SDS011;67239;51.680;5.976;2023-02-22T15:23:29;17.20;;;11.13;;
66886;SDS011;67239;51.680;5.976;2023-02-22T15:29:01;18.67;;;11.90;;
66886;SDS011;67239;51.680;5.976;2023-02-22T15:31:36;18.55;;;11.45;;
66886;SDS011;67239;51.680;5.976;2023-02-22T15:36:38;18.83;;;12.07;;
66886;SDS011;67239;51.680;5.976;2023-02-22T15:39:05;17.67;;;11.95;;
66886;SDS011;67239;51.680;5.976;2023-02-22T15:42:15;18.05;;;12.65;;
66886;SDS011;67239;51.680;5.976;2023-02-22T15:44:47;16.90;;;12.50;;
66886;SDS011;67239;51.680;5.976;2023-02-22T15:47:21;20.90;;;13.10;;
66886;SDS011;67239;51.680;5.976;2023-02-22T15:52:57;23.05;;;14.18;;
66886;SDS011;67239;51.680;5.976;2023-02-22T15:55:27;27.30;;;15.32;;
66886;SDS011;67239;51.680;5.976;2023-02-22T16:00:59;21.05;;;15.57;;
66886;SDS011;67239;51.680;5.976;2023-02-22T16:03:34;24.42;;;15.18;;
66886;SDS011;67239;51.680;5.976;2023-02-22T16:06:47;21.65;;;14.50;;
66886;SDS011;67239;51.680;5.976;2023-02-22T16:11:45;23.90;;;16.40;;
66886;SDS011;67239;51.680;5.976;2023-02-22T16:19:51;25.67;;;15.73;;
66886;SDS011;67239;51.680;5.976;2023-02-22T16:22:23;25.10;;;16.63;;
66886;SDS011;67239;51.680;5.976;2023-02-22T16:31:01;26.33;;;17.88;;
66886;SDS011;67239;51.680;5.976;2023-02-22T16:33:28;25.23;;;17.98;;
66886;SDS011;67239;51.680;5.976;2023-02-22T16:36:01;27.75;;;18.10;;
66886;SDS011;67239;51.680;5.976;2023-02-22T16:38:31;27.80;;;18.20;;
66886;SDS011;67239;51.680;5.976;2023-02-22T16:40:59;26.88;;;18.60;;
66886;SDS011;67239;51.680;5.976;2023-02-22T16:43:27;25.73;;;17.90;;
66886;SDS011;67239;51.680;5.976;2023-02-22T16:45:58;26.75;;;18.00;;
66886;SDS011;67239;51.680;5.976;2023-02-22T16:48:28;28.73;;;17.48;;
66886;SDS011;67239;51.680;5.976;2023-02-22T16:50:59;31.52;;;19.30;;
66886;SDS011;67239;51.680;5.976;2023-02-22T16:53:34;27.45;;;18.77;;
66886;SDS011;67239;51.680;5.976;2023-02-22T16:56:03;30.30;;;19.88;;
66886;SDS011;67239;51.680;5.976;2023-02-22T16:58:35;28.48;;;18.55;;
66886;SDS011;67239;51.680;5.976;2023-02-22T17:01:06;29.05;;;18.83;;
66886;SDS011;67239;51.680;5.976;2023-02-22T17:03:34;26.55;;;18.13;;
66886;SDS011;67239;51.680;5.976;2023-02-22T17:06:01;29.08;;;18.65;;
66886;SDS011;67239;51.680;5.976;2023-02-22T17:08:28;25.58;;;17.75;;
66886;SDS011;67239;51.680;5.976;2023-02-22T17:10:56;26.48;;;17.98;;
66886;SDS011;67239;51.680;5.976;2023-02-22T17:13:26;27.77;;;18.42;;
66886;SDS011;67239;51.680;5.976;2023-02-22T17:15:55;27.20;;;18.92;;
66886;SDS011;67239;51.680;5.976;2023-02-22T17:18:24;25.42;;;18.73;;
66886;SDS011;67239;51.680;5.976;2023-02-22T17:20:55;28.85;;;18.45;;
66886;SDS011;67239;51.680;5.976;2023-02-22T17:23:22;28.15;;;18.25;;
66886;SDS011;67239;51.680;5.976;2023-02-22T17:25:51;26.38;;;18.75;;
66886;SDS011;67239;51.680;5.976;2023-02-22T17:28:22;26.80;;;18.00;;
66886;SDS011;67239;51.680;5.976;2023-02-22T17:30:54;28.58;;;19.35;;
66886;SDS011;67239;51.680;5.976;2023-02-22T17:33:29;27.45;;;19.40;;
66886;SDS011;67239;51.680;5.976;2023-02-22T17:36:00;26.58;;;19.00;;
66886;SDS011;67239;51.680;5.976;2023-02-22T17:38:30;25.17;;;18.08;;
66886;SDS011;67239;51.680;5.976;2023-02-22T17:40:58;26.65;;;19.00;;
66886;SDS011;67239;51.680;5.976;2023-02-22T17:43:27;26.52;;;18.52;;